Time;durP1;ratioP1;P1;durP2;ratioP2;P2;SDS_P1;SDS_P2;PMS_P1;PMS_P2;Temp;Humidity;BMP_temperature;BMP_pressure;BME280_temperature;BME280_humidity;BME280_pressure;Samples;Min_cycle;Max_cycle;Signal;HPM_P1;HPM_P2
2023/01/22 00:00:13;;;;;;;6.38;5.10;;;19.60;56.10;;;;;;4991589;28;86394;-84
2023/01/22 00:02:39;;;;;;;5.78;4.95;;;19.60;56.10;;;;;;4988010;28;88503;-85
2023/01/22 00:05:06;;;;;;;7.05;5.65;;;19.60;56.10;;;;;;4990212;28;88135;-85
2023/01/22 00:07:31;;;;;;;5.80;4.93;;;19.60;56.10;;;;;;4986111;28;88233;-85
2023/01/22 00:09:58;;;;;;;6.53;5.30;;;19.50;56.10;;;;;;4988089;28;87400;-84
2023/01/22 00:12:24;;;;;;;7.32;5.53;;;19.50;56.20;;;;;;4993485;28;88407;-85
2023/01/22 00:14:50;;;;;;;6.80;5.90;;;19.50;56.10;;;;;;4994724;28;87694;-85
2023/01/22 00:17:15;;;;;;;5.20;4.53;;;19.50;56.10;;;;;;4988555;28;86902;-85
2023/01/22 00:19:42;;;;;;;6.40;5.07;;;19.50;56.10;;;;;;4992366;28;86948;-84
2023/01/22 00:22:09;;;;;;;6.25;5.05;;;19.50;56.70;;;;;;4989590;28;88387;-85
2023/01/22 00:24:35;;;;;;;7.75;5.18;;;19.40;56.00;;;;;;4991040;28;87614;-85
2023/01/22 00:27:00;;;;;;;6.68;5.72;;;19.40;56.10;;;;;;4988262;28;87184;-85
2023/01/22 00:29:26;;;;;;;6.60;5.35;;;19.40;56.10;;;;;;4985787;28;87198;-84
2023/01/22 00:31:52;;;;;;;5.82;5.10;;;19.40;56.10;;;;;;4991731;28;89519;-85
2023/01/22 00:34:17;;;;;;;6.65;5.53;;;19.40;56.10;;;;;;4988054;28;88141;-84
2023/01/22 00:36:43;;;;;;;7.90;5.05;;;19.40;56.20;;;;;;4988100;28;86972;-84
2023/01/22 00:39:09;;;;;;;5.57;4.53;;;19.30;56.80;;;;;;4988342;28;88013;-84
2023/01/22 00:41:35;;;;;;;6.03;5.07;;;19.30;56.10;;;;;;4981857;28;88100;-84
2023/01/22 00:44:00;;;;;;;6.38;4.97;;;19.30;56.00;;;;;;4982643;28;87007;-84
2023/01/22 00:46:26;;;;;;;7.80;5.28;;;19.30;56.10;;;;;;4987373;28;86959;-85
2023/01/22 00:48:51;;;;;;;6.10;4.70;;;19.30;56.10;;;;;;4993891;28;87430;-85
2023/01/22 00:51:17;;;;;;;5.95;5.10;;;19.30;56.10;;;;;;4997286;28;88684;-84
2023/01/22 00:53:43;;;;;;;5.70;5.07;;;19.30;56.20;;;;;;4991973;28;88155;-84
2023/01/22 00:56:14;;;;;;;6.65;5.05;;;19.30;56.10;;;;;;4987516;28;87984;-85
2023/01/22 00:58:40;;;;;;;6.57;4.93;;;19.20;56.00;;;;;;4995048;28;87388;-85
2023/01/22 01:01:06;;;;;;;5.63;4.75;;;19.20;56.10;;;;;;4994079;28;88239;-85
2023/01/22 01:03:33;;;;;;;6.25;5.20;;;19.30;56.10;;;;;;4988953;28;87881;-83
2023/01/22 01:06:06;;;;;;;7.30;5.15;;;19.20;56.00;;;;;;4986342;28;87275;-84
2023/01/22 01:08:35;;;;;;;7.03;5.45;;;19.20;56.10;;;;;;4990726;28;87361;-84
2023/01/22 01:11:04;;;;;;;6.60;5.10;;;19.20;56.00;;;;;;4983667;28;88452;-85
2023/01/22 01:13:32;;;;;;;5.82;4.43;;;19.10;56.00;;;;;;4994727;28;88289;-85
2023/01/22 01:16:08;;;;;;;5.88;4.60;;;19.10;56.10;;;;;;4988719;28;86956;-84
2023/01/22 01:18:34;;;;;;;6.20;5.60;;;19.10;56.00;;;;;;4994340;28;87198;-84
2023/01/22 01:21:00;;;;;;;6.40;5.40;;;19.10;56.00;;;;;;4987558;28;89104;-84
2023/01/22 01:23:27;;;;;;;7.53;5.40;;;19.10;56.00;;;;;;4993430;28;89334;-85
2023/01/22 01:25:53;;;;;;;6.47;5.15;;;19.10;56.10;;;;;;4991628;28;86956;-85
2023/01/22 01:28:19;;;;;;;6.60;5.38;;;19.10;56.10;;;;;;4986316;28;87882;-84
2023/01/22 01:30:45;;;;;;;6.05;5.00;;;19.10;56.00;;;;;;4988000;28;88039;-84
2023/01/22 01:33:12;;;;;;;6.22;5.60;;;19.10;55.90;;;;;;4985754;28;88050;-84
2023/01/22 01:35:38;;;;;;;5.63;5.03;;;19.10;56.60;;;;;;4988615;28;87234;-84
2023/01/22 01:38:04;;;;;;;6.32;5.20;;;19.10;55.80;;;;;;4986829;28;87641;-84
2023/01/22 01:40:30;;;;;;;5.78;5.18;;;19.10;55.90;;;;;;4992076;28;88252;-84
2023/01/22 01:42:55;;;;;;;6.10;4.60;;;19.00;55.80;;;;;;4991329;28;88261;-84
2023/01/22 01:45:28;;;;;;;5.80;5.20;;;19.00;55.70;;;;;;4987891;28;88184;-85
2023/01/22 01:48:26;;;;;;;5.15;4.65;;;19.00;55.80;;;;;;4990148;28;87392;-84
2023/01/22 01:51:16;;;;;;;6.43;4.90;;;19.00;55.90;;;;;;4988640;28;89129;-84
2023/01/22 01:53:44;;;;;;;6.22;5.18;;;19.00;56.00;;;;;;4989044;28;90385;-84
2023/01/22 01:56:18;;;;;;;5.68;5.13;;;19.00;56.00;;;;;;4986687;28;86855;-84
2023/01/22 01:58:45;;;;;;;7.05;5.90;;;19.00;56.10;;;;;;4986357;28;87197;-84
2023/01/22 02:01:15;;;;;;;6.32;5.28;;;19.00;56.00;;;;;;4987519;28;89856;-84
2023/01/22 02:03:42;;;;;;;5.53;4.80;;;18.90;56.10;;;;;;4991122;28;87504;-85
2023/01/22 02:06:13;;;;;;;5.90;5.10;;;18.90;55.90;;;;;;4985695;28;87482;-84
2023/01/22 02:08:41;;;;;;;5.82;5.10;;;18.90;56.10;;;;;;4987919;28;87983;-84
2023/01/22 02:11:07;;;;;;;6.13;4.80;;;18.90;56.30;;;;;;4985283;28;88222;-85
2023/01/22 02:13:36;;;;;;;5.82;5.22;;;18.90;55.90;;;;;;4988155;28;88351;-84
2023/01/22 02:16:03;;;;;;;5.80;5.03;;;18.90;56.10;;;;;;4993085;28;86963;-84
2023/01/22 02:18:29;;;;;;;5.72;4.93;;;18.90;56.00;;;;;;4986205;28;88003;-85
2023/01/22 02:20:56;;;;;;;5.75;4.80;;;18.90;56.10;;;;;;4990241;28;88623;-84
2023/01/22 02:23:22;;;;;;;5.32;4.82;;;18.80;56.00;;;;;;4989324;28;87598;-84
2023/01/22 02:25:48;;;;;;;5.10;4.47;;;18.80;56.10;;;;;;4982252;28;87221;-85
2023/01/22 02:28:14;;;;;;;5.45;4.90;;;18.80;56.00;;;;;;4990843;28;88548;-84
2023/01/22 02:30:41;;;;;;;5.10;4.60;;;18.80;56.00;;;;;;4992010;28;91271;-84
2023/01/22 02:33:06;;;;;;;5.30;4.57;;;18.80;55.90;;;;;;4978612;28;87939;-84
2023/01/22 02:35:32;;;;;;;6.10;5.15;;;18.80;56.10;;;;;;4988338;28;87908;-85
2023/01/22 02:37:57;;;;;;;5.00;4.50;;;18.80;55.90;;;;;;4985504;28;87384;-84
2023/01/22 02:40:23;;;;;;;6.05;5.18;;;18.70;56.10;;;;;;4989670;28;87537;-85
2023/01/22 02:42:49;;;;;;;6.18;5.22;;;18.80;56.10;;;;;;4979036;28;88211;-85
2023/01/22 02:45:14;;;;;;;4.88;4.30;;;18.70;56.00;;;;;;4987216;28;87220;-85
2023/01/22 02:47:40;;;;;;;5.65;4.72;;;18.70;56.10;;;;;;4984584;28;87467;-84
2023/01/22 02:50:07;;;;;;;5.25;4.63;;;18.70;56.00;;;;;;4993422;28;88552;-84
2023/01/22 02:52:33;;;;;;;6.10;5.07;;;18.70;56.00;;;;;;4983533;28;90617;-85
2023/01/22 02:54:58;;;;;;;5.78;5.18;;;18.70;56.10;;;;;;4988849;28;87042;-85
2023/01/22 02:57:24;;;;;;;5.43;4.93;;;18.70;56.10;;;;;;4987199;28;86909;-85
2023/01/22 02:59:49;;;;;;;5.28;4.78;;;18.70;56.20;;;;;;4984565;28;89998;-84
2023/01/22 03:02:15;;;;;;;5.20;4.70;;;18.70;56.00;;;;;;4974534;28;88221;-84
2023/01/22 03:04:41;;;;;;;5.38;4.80;;;18.70;56.00;;;;;;4978131;28;86945;-84
2023/01/22 03:07:06;;;;;;;5.75;5.15;;;18.70;56.00;;;;;;4990863;28;86942;-84
2023/01/22 03:09:32;;;;;;;5.10;4.60;;;18.70;56.00;;;;;;4992622;28;88632;-84
2023/01/22 03:11:58;;;;;;;5.15;4.45;;;18.60;55.90;;;;;;4994129;28;87628;-85
2023/01/22 03:22:36;;;;;;;6.20;5.03;;;18.60;55.80;;;;;;4993042;28;91437;-84
2023/01/22 03:25:02;;;;;;;5.85;4.65;;;18.60;55.90;;;;;;4990487;28;88116;-85
2023/01/22 03:27:30;;;;;;;4.88;4.32;;;18.60;55.80;;;;;;4990899;28;87063;-85
2023/01/22 03:29:56;;;;;;;5.97;5.38;;;18.60;56.00;;;;;;4990688;28;88962;-84
2023/01/22 03:32:22;;;;;;;5.90;5.30;;;18.60;56.00;;;;;;4987141;28;88169;-84
2023/01/22 03:34:48;;;;;;;5.47;4.97;;;18.60;56.10;;;;;;4996826;28;87248;-84
2023/01/22 03:37:13;;;;;;;5.38;4.65;;;18.50;55.90;;;;;;4992652;28;87457;-84
2023/01/22 03:39:40;;;;;;;5.40;4.75;;;18.50;56.00;;;;;;4993441;28;88173;-84
2023/01/22 03:42:06;;;;;;;5.68;5.07;;;18.60;56.00;;;;;;4991895;28;86833;-85
2023/01/22 03:44:31;;;;;;;5.47;4.57;;;18.50;55.90;;;;;;4992380;28;86939;-84
2023/01/22 03:46:57;;;;;;;7.88;5.45;;;18.60;56.10;;;;;;4988268;28;86860;-84
2023/01/22 03:49:23;;;;;;;5.38;4.80;;;18.50;55.90;;;;;;4997766;28;89666;-84
2023/01/22 03:51:48;;;;;;;5.18;4.65;;;18.50;56.00;;;;;;4988384;28;89225;-85
2023/01/22 03:54:17;;;;;;;4.70;4.28;;;18.50;55.90;;;;;;4992587;28;86929;-84
2023/01/22 03:56:43;;;;;;;5.25;4.75;;;18.50;55.90;;;;;;4993915;28;87305;-84
2023/01/22 03:59:09;;;;;;;5.07;4.57;;;18.50;56.00;;;;;;4995217;28;87857;-84
2023/01/22 04:01:35;;;;;;;6.30;5.43;;;18.50;55.90;;;;;;4993359;28;93037;-85
2023/01/22 04:04:01;;;;;;;5.75;4.97;;;18.50;55.90;;;;;;4992333;28;86999;-84
2023/01/22 04:06:27;;;;;;;5.90;4.60;;;18.50;55.90;;;;;;4988614;28;87389;-85
2023/01/22 04:08:54;;;;;;;5.07;4.53;;;18.50;55.90;;;;;;4987093;28;88659;-84
2023/01/22 04:11:20;;;;;;;5.22;4.72;;;18.50;55.90;;;;;;4988557;28;88345;-84
2023/01/22 04:13:46;;;;;;;6.15;5.03;;;18.50;55.80;;;;;;4982952;28;87880;-84
2023/01/22 04:16:13;;;;;;;5.00;4.50;;;18.50;55.90;;;;;;4985918;28;87044;-84
2023/01/22 04:18:40;;;;;;;5.15;4.47;;;18.50;55.70;;;;;;4986310;28;87341;-84
2023/01/22 04:21:06;;;;;;;6.07;5.28;;;18.40;55.70;;;;;;4987761;28;88316;-82
2023/01/22 04:23:31;;;;;;;5.32;4.75;;;18.40;55.90;;;;;;4991937;28;87341;-84
2023/01/22 04:25:57;;;;;;;5.28;4.70;;;18.50;55.90;;;;;;4986351;28;87272;-83
2023/01/22 04:28:23;;;;;;;5.68;5.10;;;18.40;55.90;;;;;;4993535;28;88502;-84
2023/01/22 04:30:51;;;;;;;5.55;4.95;;;18.40;55.90;;;;;;4993578;28;88343;-84
2023/01/22 04:33:17;;;;;;;5.30;4.60;;;18.40;55.90;;;;;;4986978;28;87202;-83
2023/01/22 04:35:42;;;;;;;4.68;4.22;;;18.40;55.90;;;;;;4989369;28;87457;-84
2023/01/22 04:38:12;;;;;;;4.88;4.28;;;18.40;55.80;;;;;;4994319;28;89239;-84
2023/01/22 04:40:38;;;;;;;4.95;4.25;;;18.40;55.80;;;;;;4993573;28;93456;-84
2023/01/22 04:43:07;;;;;;;5.45;4.95;;;18.40;55.90;;;;;;4993444;28;86993;-82
2023/01/22 04:45:35;;;;;;;5.10;4.43;;;18.40;55.80;;;;;;4984750;28;86972;-84
2023/01/22 04:48:01;;;;;;;7.57;5.07;;;18.40;55.70;;;;;;4982453;28;88175;-84
2023/01/22 04:50:31;;;;;;;5.22;4.72;;;18.40;55.70;;;;;;4991641;28;87970;-84
2023/01/22 04:52:57;;;;;;;5.10;4.60;;;18.40;55.70;;;;;;4986905;28;87295;-84
2023/01/22 04:55:24;;;;;;;5.35;4.85;;;18.40;55.60;;;;;;4985810;28;87319;-83
2023/01/22 04:57:54;;;;;;;5.13;4.55;;;18.40;55.70;;;;;;4977149;28;88226;-83
2023/01/22 05:00:19;;;;;;;4.65;4.18;;;18.40;55.70;;;;;;4982511;28;90845;-83
2023/01/22 05:02:45;;;;;;;4.47;4.05;;;18.40;55.70;;;;;;4988787;28;87927;-84
2023/01/22 05:05:11;;;;;;;5.63;4.35;;;18.40;55.60;;;;;;4985116;28;87132;-83
2023/01/22 05:07:36;;;;;;;4.75;4.25;;;18.40;55.60;;;;;;4986818;28;91366;-84
2023/01/22 05:10:02;;;;;;;4.40;4.00;;;18.40;55.70;;;;;;4971726;28;87300;-84
2023/01/22 05:12:28;;;;;;;5.82;4.43;;;18.40;55.60;;;;;;4994451;28;87478;-83
2023/01/22 05:14:53;;;;;;;4.65;4.22;;;18.40;55.60;;;;;;4991634;28;87049;-83
2023/01/22 05:17:20;;;;;;;5.00;4.45;;;18.40;55.50;;;;;;4991679;28;88259;-83
2023/01/22 05:19:45;;;;;;;4.70;4.30;;;18.40;55.50;;;;;;4993405;28;88277;-84
2023/01/22 05:22:11;;;;;;;5.45;4.72;;;18.40;55.50;;;;;;4992080;28;86879;-83
2023/01/22 05:24:39;;;;;;;4.90;4.20;;;18.40;55.60;;;;;;4984284;28;87241;-83
2023/01/22 05:27:05;;;;;;;4.28;3.88;;;18.40;55.50;;;;;;4988968;28;89495;-83
2023/01/22 05:29:32;;;;;;;5.18;4.35;;;18.40;55.50;;;;;;4983667;28;89320;-84
2023/01/22 05:31:58;;;;;;;4.65;4.13;;;18.40;55.50;;;;;;4992565;28;86941;-83
2023/01/22 05:34:24;;;;;;;5.43;4.85;;;18.40;55.30;;;;;;4985829;28;86810;-83
2023/01/22 05:36:50;;;;;;;4.65;4.15;;;18.40;55.60;;;;;;4983838;28;88299;-84
2023/01/22 05:39:17;;;;;;;4.95;4.45;;;18.40;55.50;;;;;;4981992;28;88371;-83
2023/01/22 05:41:43;;;;;;;4.88;4.38;;;18.40;55.40;;;;;;4989446;28;86945;-83
2023/01/22 05:44:10;;;;;;;4.78;4.28;;;18.30;55.50;;;;;;4993303;28;87553;-83
2023/01/22 05:46:36;;;;;;;4.88;4.40;;;18.40;55.40;;;;;;4987994;28;95565;-84
2023/01/22 05:49:02;;;;;;;8.38;4.70;;;18.40;55.40;;;;;;4988149;28;87452;-85
2023/01/22 05:51:28;;;;;;;4.93;4.43;;;18.40;55.10;;;;;;4985122;28;88155;-82
2023/01/22 05:53:53;;;;;;;6.13;4.20;;;18.50;54.30;;;;;;4984618;28;87881;-82
2023/01/22 05:56:19;;;;;;;5.05;3.60;;;18.50;54.40;;;;;;4988985;28;88177;-83
2023/01/22 05:58:45;;;;;;;6.00;4.25;;;18.60;54.60;;;;;;4986609;28;87649;-83
2023/01/22 06:01:10;;;;;;;7.72;4.30;;;18.60;54.50;;;;;;4985603;28;86870;-83
2023/01/22 06:03:37;;;;;;;4.45;3.97;;;18.50;54.60;;;;;;4983642;28;87618;-84
2023/01/22 06:06:05;;;;;;;5.30;4.00;;;18.60;54.80;;;;;;4994119;28;87998;-84
2023/01/22 06:08:31;;;;;;;9.73;3.50;;;18.60;54.90;;;;;;4993827;28;90192;-83
2023/01/22 06:11:11;;;;;;;4.15;3.67;;;18.70;54.90;;;;;;4984210;28;87114;-84
2023/01/22 06:13:37;;;;;;;4.00;3.60;;;18.80;54.90;;;;;;4985940;28;91391;-83
2023/01/22 06:16:03;;;;;;;5.18;3.55;;;19.00;54.90;;;;;;4982450;28;89258;-83
2023/01/22 06:18:29;;;;;;;4.03;3.63;;;19.10;54.70;;;;;;4988634;28;90425;-83
2023/01/22 06:21:03;;;;;;;3.58;3.00;;;19.20;54.50;;;;;;4987270;28;87429;-83
2023/01/22 06:23:29;;;;;;;3.53;3.22;;;19.30;54.40;;;;;;4988563;28;89707;-84
2023/01/22 06:25:56;;;;;;;4.45;3.58;;;19.50;54.20;;;;;;4988404;28;88060;-83
2023/01/22 06:28:23;;;;;;;3.70;3.10;;;19.50;54.10;;;;;;4989204;28;87181;-83
2023/01/22 06:30:49;;;;;;;3.40;3.10;;;19.60;54.00;;;;;;4985070;28;87728;-84
2023/01/22 06:33:14;;;;;;;3.95;3.25;;;19.70;53.80;;;;;;4984511;28;87212;-83
2023/01/22 06:35:40;;;;;;;3.10;2.80;;;19.80;53.70;;;;;;4985924;28;88074;-83
2023/01/22 06:38:06;;;;;;;2.90;2.60;;;19.90;53.50;;;;;;4990642;28;87135;-82
2023/01/22 06:40:33;;;;;;;4.72;2.90;;;19.90;53.10;;;;;;4988124;28;88557;-84
2023/01/22 06:43:02;;;;;;;4.50;3.20;;;19.90;52.50;;;;;;4984887;28;86922;-85
2023/01/22 06:45:27;;;;;;;3.60;2.97;;;20.00;52.60;;;;;;4985004;28;90021;-85
2023/01/22 06:47:56;;;;;;;3.13;2.80;;;19.90;52.60;;;;;;4980453;28;87909;-84
2023/01/22 06:50:22;;;;;;;4.13;3.40;;;19.90;52.80;;;;;;4971360;28;86881;-84
2023/01/22 06:52:47;;;;;;;7.07;3.28;;;19.90;52.90;;;;;;4978344;28;87951;-83
2023/01/22 06:55:13;;;;;;;3.47;3.17;;;19.80;52.90;;;;;;4984064;28;88250;-83
2023/01/22 06:57:39;;;;;;;5.47;3.88;;;19.80;53.20;;;;;;4967761;28;88082;-82
2023/01/22 07:00:05;;;;;;;3.83;3.38;;;19.80;53.50;;;;;;4985952;28;87209;-83
2023/01/22 07:02:31;;;;;;;4.47;2.88;;;19.80;53.60;;;;;;4976319;28;88356;-83
2023/01/22 07:04:57;;;;;;;6.15;3.45;;;19.80;53.50;;;;;;4978410;28;88657;-83
2023/01/22 07:07:22;;;;;;;4.05;2.95;;;19.80;53.60;;;;;;4992027;28;88287;-83
2023/01/22 07:09:48;;;;;;;4.50;2.90;;;19.90;53.70;;;;;;4991149;28;86930;-83
2023/01/22 07:12:14;;;;;;;3.20;2.67;;;19.90;53.40;;;;;;4971478;28;87139;-82
2023/01/22 07:14:39;;;;;;;3.35;2.85;;;19.90;53.60;;;;;;4986544;28;87568;-83
2023/01/22 07:17:05;;;;;;;3.25;2.95;;;20.00;53.70;;;;;;4989224;28;87277;-83
2023/01/22 07:19:30;;;;;;;4.43;2.95;;;20.00;53.50;;;;;;4983023;28;87201;-83
2023/01/22 07:21:56;;;;;;;3.55;2.97;;;20.00;53.50;;;;;;4991852;28;87335;-82
2023/01/22 07:24:22;;;;;;;3.47;2.72;;;20.00;53.50;;;;;;4985438;28;87827;-83
2023/01/22 07:26:48;;;;;;;3.15;2.85;;;20.00;53.50;;;;;;4989189;28;87246;-83
2023/01/22 07:29:14;;;;;;;3.65;2.90;;;19.90;53.50;;;;;;4981535;28;87967;-82
2023/01/22 07:31:39;;;;;;;3.65;2.83;;;19.90;53.40;;;;;;4998100;28;87938;-82
2023/01/22 07:34:05;;;;;;;3.33;3.03;;;19.80;53.40;;;;;;4988308;28;88151;-83
2023/01/22 07:36:31;;;;;;;2.63;2.42;;;19.80;53.60;;;;;;4986299;28;88170;-83
2023/01/22 07:39:04;;;;;;;4.18;3.03;;;19.80;53.70;;;;;;4985831;28;86975;-84
2023/01/22 07:41:30;;;;;;;4.15;2.92;;;19.90;53.60;;;;;;4988222;28;87227;-83
2023/01/22 07:43:58;;;;;;;5.22;3.25;;;20.00;53.50;;;;;;4977901;28;87581;-84
2023/01/22 07:46:24;;;;;;;8.48;3.05;;;20.00;53.20;;;;;;4990804;28;87891;-83
2023/01/22 07:48:50;;;;;;;5.72;3.10;;;20.00;53.30;;;;;;4985178;28;86973;-83
2023/01/22 07:51:16;;;;;;;7.68;3.40;;;20.10;53.40;;;;;;4982476;28;87322;-82
2023/01/22 07:53:42;;;;;;;9.18;3.40;;;20.10;53.50;;;;;;4987659;28;89569;-83
2023/01/22 07:56:07;;;;;;;10.85;3.88;;;20.10;53.40;;;;;;4992746;28;89284;-84
2023/01/22 07:58:33;;;;;;;9.30;4.32;;;20.10;53.40;;;;;;4985238;28;87286;-84
2023/01/22 08:01:03;;;;;;;9.80;3.38;;;20.10;53.60;;;;;;4984752;28;87209;-84
2023/01/22 08:03:32;;;;;;;8.68;4.22;;;20.10;54.30;;;;;;4985207;28;87153;-84
2023/01/22 08:05:58;;;;;;;12.60;4.60;;;20.10;53.70;;;;;;4991399;28;87118;-84
2023/01/22 08:08:26;;;;;;;20.25;6.57;;;20.10;53.60;;;;;;4986642;28;87662;-83
2023/01/22 08:10:51;;;;;;;12.52;6.18;;;20.00;52.10;;;;;;4988709;28;86949;-83
2023/01/22 08:13:17;;;;;;;14.18;5.68;;;19.90;51.80;;;;;;4985277;28;88192;-83
2023/01/22 08:15:44;;;;;;;17.02;5.63;;;19.90;52.90;;;;;;4988343;28;88286;-83
2023/01/22 08:18:11;;;;;;;15.80;6.43;;;19.90;53.20;;;;;;4987970;28;88321;-84
2023/01/22 08:20:36;;;;;;;14.98;7.15;;;19.90;53.40;;;;;;4986423;28;87361;-83
2023/01/22 08:23:02;;;;;;;13.23;6.35;;;19.90;52.70;;;;;;4988047;28;87760;-84
2023/01/22 08:25:35;;;;;;;11.38;6.00;;;19.90;52.90;;;;;;4994252;28;87871;-84
2023/01/22 08:28:02;;;;;;;18.23;5.97;;;20.00;53.40;;;;;;4985368;28;86932;-84
2023/01/22 08:30:27;;;;;;;13.48;6.28;;;20.00;53.30;;;;;;4988922;28;86882;-84
2023/01/22 08:32:54;;;;;;;15.25;5.78;;;20.10;53.60;;;;;;4991723;28;88258;-84
2023/01/22 08:35:20;;;;;;;13.48;5.18;;;20.10;53.50;;;;;;4995022;28;87870;-84
2023/01/22 08:37:46;;;;;;;11.98;5.55;;;20.00;53.60;;;;;;4994060;28;86897;-84
2023/01/22 08:40:12;;;;;;;14.50;6.00;;;20.00;53.80;;;;;;4990717;28;87205;-83
2023/01/22 08:42:40;;;;;;;16.75;7.25;;;20.00;53.80;;;;;;4993063;28;88664;-82
2023/01/22 08:45:07;;;;;;;15.85;7.70;;;19.90;52.00;;;;;;4991953;28;89420;-83
2023/01/22 08:47:33;;;;;;;17.98;7.25;;;19.80;50.60;;;;;;4992449;28;86940;-82
2023/01/22 08:50:00;;;;;;;13.07;7.03;;;19.80;50.20;;;;;;4993335;28;87175;-83
2023/01/22 08:52:26;;;;;;;14.38;8.25;;;19.70;50.20;;;;;;4984817;28;88604;-83
2023/01/22 08:54:52;;;;;;;13.32;7.78;;;19.70;49.40;;;;;;4991852;28;88972;-85
2023/01/22 08:57:20;;;;;;;16.27;7.15;;;19.80;49.60;;;;;;4991954;28;86860;-83
2023/01/22 08:59:48;;;;;;;11.82;6.18;;;19.90;50.90;;;;;;4991848;28;88895;-83
2023/01/22 09:02:13;;;;;;;13.95;7.15;;;20.00;51.30;;;;;;4972453;28;88717;-84
2023/01/22 09:04:46;;;;;;;12.60;5.45;;;20.10;50.80;;;;;;4991961;28;87100;-83
2023/01/22 09:07:14;;;;;;;11.57;5.53;;;20.30;51.30;;;;;;4997555;28;87976;-84
2023/01/22 09:09:39;;;;;;;14.10;6.18;;;20.20;51.50;;;;;;4982809;28;87868;-83
2023/01/22 09:12:05;;;;;;;16.67;5.60;;;20.30;49.90;;;;;;4991975;28;88646;-83
2023/01/22 09:14:31;;;;;;;11.57;5.25;;;20.40;49.20;;;;;;4983315;28;88336;-84
2023/01/22 09:16:56;;;;;;;12.68;5.60;;;20.40;49.00;;;;;;4992156;28;87287;-83
2023/01/22 09:19:22;;;;;;;11.70;5.88;;;20.40;47.90;;;;;;4948625;28;87209;-84
2023/01/22 09:21:47;;;;;;;13.32;5.55;;;20.40;47.90;;;;;;4987959;28;87550;-84
2023/01/22 09:24:16;;;;;;;12.70;6.07;;;20.40;49.00;;;;;;4989895;28;87405;-84
2023/01/22 09:26:42;;;;;;;11.70;5.30;;;20.40;48.40;;;;;;4993591;28;87224;-84
2023/01/22 09:29:07;;;;;;;8.70;4.53;;;20.50;49.10;;;;;;4988360;28;86811;-84
2023/01/22 09:31:35;;;;;;;9.43;4.72;;;20.40;49.80;;;;;;4992328;28;89162;-84
2023/01/22 09:34:00;;;;;;;9.80;5.15;;;20.40;50.10;;;;;;4988779;28;89184;-83
2023/01/22 09:36:26;;;;;;;12.02;5.53;;;20.50;50.60;;;;;;4981079;28;87036;-82
2023/01/22 09:38:52;;;;;;;11.65;5.30;;;20.40;50.90;;;;;;4990143;28;87008;-83
2023/01/22 09:41:43;;;;;;;12.02;5.53;;;20.40;50.60;;;;;;4985079;28;87461;-85
2023/01/22 09:44:30;;;;;;;12.52;6.00;;;20.50;51.40;;;;;;4968142;28;87991;-84
2023/01/22 09:47:03;;;;;;;10.38;5.32;;;20.40;52.30;;;;;;4994337;28;87151;-84
2023/01/22 09:49:39;;;;;;;13.23;6.15;;;20.40;52.90;;;;;;4989108;28;88157;-81
2023/01/22 09:52:05;;;;;;;8.65;5.53;;;20.40;53.60;;;;;;4989691;28;87202;-83
2023/01/22 09:54:32;;;;;;;13.63;5.93;;;20.50;53.40;;;;;;4991001;28;88928;-83
2023/01/22 09:57:01;;;;;;;11.90;6.07;;;20.50;53.50;;;;;;4986982;28;87909;-83
2023/01/22 09:59:31;;;;;;;;;;;20.50;53.70;;;;;;4983978;28;87862;-83
2023/01/22 10:02:01;;;;;;;12.00;6.75;;;20.60;53.60;;;;;;4991361;28;88528;-83
2023/01/22 10:04:37;;;;;;;9.02;6.10;;;20.50;52.90;;;;;;4981128;28;87761;-83
2023/01/22 10:07:08;;;;;;;12.10;6.30;;;20.50;53.00;;;;;;4964018;28;87243;-82
2023/01/22 10:09:34;;;;;;;10.90;6.20;;;20.50;53.20;;;;;;4957360;28;88585;-84
2023/01/22 10:12:13;;;;;;;10.07;6.22;;;20.40;53.00;;;;;;4990545;28;88535;-83
2023/01/22 10:14:41;;;;;;;9.57;5.93;;;20.40;53.30;;;;;;4986454;28;88508;-83
2023/01/22 10:17:26;;;;;;;11.52;6.13;;;20.30;53.30;;;;;;4992198;28;87318;-83
2023/01/22 10:19:56;;;;;;;7.65;5.30;;;20.20;53.20;;;;;;4990428;28;91626;-82
2023/01/22 10:22:24;;;;;;;10.25;6.15;;;20.20;52.60;;;;;;4989307;28;88486;-82
2023/01/22 10:24:51;;;;;;;7.93;5.80;;;20.20;52.20;;;;;;4988037;28;87856;-83
2023/01/22 10:27:22;;;;;;;8.75;5.30;;;20.20;51.90;;;;;;4986807;28;86990;-82
2023/01/22 10:30:21;;;;;;;8.63;5.03;;;20.20;51.60;;;;;;4985432;28;87289;-82
2023/01/22 10:32:58;;;;;;;11.57;5.35;;;20.30;50.90;;;;;;4960838;28;89586;-82
2023/01/22 10:35:23;;;;;;;8.90;4.72;;;20.40;50.80;;;;;;4965803;28;88281;-82
2023/01/22 10:37:54;;;;;;;9.55;5.95;;;20.50;49.30;;;;;;4964815;28;86959;-83
2023/01/22 10:40:34;;;;;;;11.32;6.20;;;20.50;47.10;;;;;;4962527;28;86702;-83
2023/01/22 10:43:04;;;;;;;9.35;6.30;;;20.40;45.60;;;;;;4960835;28;88151;-83
2023/01/22 10:45:32;;;;;;;24.25;10.27;;;20.30;45.50;;;;;;4967569;28;88124;-83
2023/01/22 10:48:12;;;;;;;65.25;23.25;;;20.20;44.90;;;;;;4964207;28;88406;-82
2023/01/22 10:50:39;;;;;;;52.47;19.58;;;20.10;44.10;;;;;;4967473;28;86920;-83
2023/01/22 10:53:32;;;;;;;46.00;17.92;;;20.10;43.50;;;;;;4969731;28;88638;-83
2023/01/22 10:56:02;;;;;;;33.50;12.48;;;20.10;43.40;;;;;;4961780;28;91367;-84
2023/01/22 10:58:32;;;;;;;34.75;12.25;;;20.10;45.30;;;;;;4963360;28;87439;-83
2023/01/22 11:01:20;;;;;;;30.65;11.05;;;20.20;46.00;;;;;;4970565;28;87515;-83
2023/01/22 11:03:48;;;;;;;28.10;11.30;;;20.30;47.10;;;;;;4968334;28;88560;-83
2023/01/22 11:06:21;;;;;;;29.30;11.10;;;20.50;47.60;;;;;;4948759;28;87941;-83
2023/01/22 11:08:54;;;;;;;29.25;11.13;;;20.50;47.60;;;;;;4980538;28;87035;-83
2023/01/22 11:11:30;;;;;;;26.58;10.30;;;20.60;48.00;;;;;;4989952;28;87290;-83
2023/01/22 11:14:03;;;;;;;23.88;9.23;;;20.60;48.10;;;;;;4990627;28;87888;-84
2023/01/22 11:16:35;;;;;;;27.40;10.75;;;20.60;48.30;;;;;;4991061;28;88351;-83
2023/01/22 11:19:20;;;;;;;24.60;9.52;;;20.60;48.80;;;;;;4993056;28;87070;-84
2023/01/22 11:21:51;;;;;;;28.45;9.20;;;20.60;48.70;;;;;;4981544;28;87438;-82
2023/01/22 11:24:36;;;;;;;23.75;8.63;;;20.60;48.90;;;;;;4986082;28;88059;-83
2023/01/22 11:27:04;;;;;;;29.95;10.25;;;20.60;49.60;;;;;;4986693;28;88203;-83
2023/01/22 11:29:55;;;;;;;26.27;9.53;;;20.60;50.00;;;;;;4983521;28;86909;-83
2023/01/22 11:32:51;;;;;;;20.02;8.77;;;20.60;50.20;;;;;;4983468;28;87411;-83
2023/01/22 11:35:16;;;;;;;24.02;8.38;;;20.50;50.30;;;;;;4987462;28;88278;-84
2023/01/22 11:37:48;;;;;;;19.80;8.50;;;20.50;50.30;;;;;;4990553;28;87339;-83
2023/01/22 11:40:32;;;;;;;22.33;8.20;;;20.40;49.50;;;;;;4993861;28;88219;-82
2023/01/22 11:43:19;;;;;;;20.52;8.60;;;20.30;50.00;;;;;;4990170;28;89350;-82
2023/01/22 11:46:22;;;;;;;22.73;8.98;;;20.30;50.40;;;;;;4989785;28;90057;-83
2023/01/22 11:49:18;;;;;;;18.02;8.27;;;20.30;50.70;;;;;;4985864;28;88402;-82
2023/01/22 11:51:46;;;;;;;23.20;8.63;;;20.20;51.20;;;;;;4990976;28;87434;-83
2023/01/22 11:54:30;;;;;;;23.50;8.43;;;20.20;52.20;;;;;;4983700;28;89373;-84
2023/01/22 11:57:08;;;;;;;17.92;7.60;;;20.20;52.80;;;;;;4991299;28;88342;-83
2023/01/22 11:59:34;;;;;;;16.80;7.45;;;20.30;52.70;;;;;;4994260;28;87901;-82
2023/01/22 12:02:26;;;;;;;21.35;7.43;;;20.40;52.70;;;;;;4994615;28;86940;-81
2023/01/22 12:05:10;;;;;;;17.52;7.40;;;20.50;52.60;;;;;;4987892;28;91554;-82
2023/01/22 12:07:44;;;;;;;16.30;6.57;;;20.50;53.00;;;;;;4986407;28;93676;-81
2023/01/22 12:10:32;;;;;;;17.15;6.85;;;20.60;52.90;;;;;;4988523;28;89865;-81
2023/01/22 12:13:10;;;;;;;15.45;6.65;;;20.70;53.00;;;;;;4989287;28;86989;-81
2023/01/22 12:16:03;;;;;;;20.00;6.70;;;20.80;52.70;;;;;;4988562;28;87112;-89
2023/01/22 12:18:44;;;;;;;15.80;7.35;;;20.80;52.80;;;;;;4988968;28;88010;-89
2023/01/22 12:21:27;;;;;;;19.88;6.97;;;20.80;52.60;;;;;;4987461;28;87500;-89
2023/01/22 12:24:09;;;;;;;20.60;7.40;;;20.70;52.70;;;;;;4991549;28;86879;-89
2023/01/22 12:26:41;;;;;;;26.15;7.90;;;20.70;52.80;;;;;;4988295;28;86772;-89
2023/01/22 12:29:18;;;;;;;16.92;6.90;;;20.70;53.00;;;;;;4992833;28;88317;-89
2023/01/22 12:31:49;;;;;;;19.45;6.97;;;20.60;53.00;;;;;;4986994;28;96592;-88
2023/01/22 12:34:24;;;;;;;15.50;6.50;;;20.60;53.30;;;;;;4981697;28;88321;-89
2023/01/22 12:36:52;;;;;;;15.95;6.68;;;20.60;53.30;;;;;;4990827;28;87482;-90
2023/01/22 12:39:33;;;;;;;18.35;6.70;;;20.60;53.30;;;;;;4988360;28;89099;-90
2023/01/22 12:42:20;;;;;;;20.67;7.10;;;20.50;53.40;;;;;;4989814;28;87548;-89
2023/01/22 12:45:03;;;;;;;14.25;5.80;;;20.60;53.30;;;;;;4970747;28;87044;-87
2023/01/22 12:47:44;;;;;;;16.05;6.40;;;20.60;53.50;;;;;;4985391;28;87450;-88
2023/01/22 12:50:21;;;;;;;11.30;5.60;;;20.70;53.50;;;;;;4987599;28;89177;-88
2023/01/22 12:53:00;;;;;;;15.00;6.43;;;20.70;53.50;;;;;;4988756;28;92423;-88
2023/01/22 12:55:36;;;;;;;11.87;5.67;;;20.80;53.30;;;;;;4988771;28;87368;-88
2023/01/22 12:58:03;;;;;;;11.93;5.70;;;20.90;53.30;;;;;;4987869;28;87476;-88
2023/01/22 13:00:33;;;;;;;15.52;6.47;;;21.00;53.00;;;;;;4987793;28;88248;-88